sensor_id;sensor_type;location;lat;lon;timestamp;temperature;humidity
7048;DHT22;3565;53.254;10.352;2022-10-20T00:01:21;6.10;99.90
7048;DHT22;3565;53.254;10.352;2022-10-20T00:06:36;6.00;99.90
7048;DHT22;3565;53.254;10.352;2022-10-20T00:09:06;6.00;99.90
7048;DHT22;3565;53.254;10.352;2022-10-20T00:14:14;6.00;99.90
7048;DHT22;3565;53.254;10.352;2022-10-20T00:16:42;6.00;99.90
7048;DHT22;3565;53.254;10.352;2022-10-20T00:19:11;6.00;99.90
7048;DHT22;3565;53.254;10.352;2022-10-20T00:21:40;6.00;99.90
7048;DHT22;3565;53.254;10.352;2022-10-20T00:24:09;5.90;99.90
7048;DHT22;3565;53.254;10.352;2022-10-20T00:26:38;6.00;99.90
7048;DHT22;3565;53.254;10.352;2022-10-20T00:29:07;5.90;99.90
7048;DHT22;3565;53.254;10.352;2022-10-20T00:31:35;5.90;99.90
7048;DHT22;3565;53.254;10.352;2022-10-20T00:34:04;5.90;99.90
7048;DHT22;3565;53.254;10.352;2022-10-20T00:36:33;5.90;99.90
7048;DHT22;3565;53.254;10.352;2022-10-20T00:39:03;5.90;99.90
7048;DHT22;3565;53.254;10.352;2022-10-20T00:41:33;5.90;99.90
7048;DHT22;3565;53.254;10.352;2022-10-20T00:46:50;5.80;99.90
7048;DHT22;3565;53.254;10.352;2022-10-20T00:49:21;5.80;99.90
7048;DHT22;3565;53.254;10.352;2022-10-20T00:51:51;5.80;99.90
7048;DHT22;3565;53.254;10.352;2022-10-20T00:54:22;5.70;99.90
7048;DHT22;3565;53.254;10.352;2022-10-20T00:56:54;5.70;99.90
7048;DHT22;3565;53.254;10.352;2022-10-20T00:59:25;5.80;99.90
7048;DHT22;3565;53.254;10.352;2022-10-20T01:01:56;5.70;99.90
7048;DHT22;3565;53.254;10.352;2022-10-20T01:04:26;5.70;99.90
7048;DHT22;3565;53.254;10.352;2022-10-20T01:06:55;5.80;99.90
7048;DHT22;3565;53.254;10.352;2022-10-20T01:09:24;5.70;99.90
7048;DHT22;3565;53.254;10.352;2022-10-20T01:11:57;5.80;99.90
7048;DHT22;3565;53.254;10.352;2022-10-20T01:14:32;5.80;99.90
7048;DHT22;3565;53.254;10.352;2022-10-20T01:17:06;5.80;99.90
7048;DHT22;3565;53.254;10.352;2022-10-20T01:22:46;5.80;99.90
7048;DHT22;3565;53.254;10.352;2022-10-20T01:25:20;5.80;99.90
7048;DHT22;3565;53.254;10.352;2022-10-20T01:27:52;5.80;99.90
7048;DHT22;3565;53.254;10.352;2022-10-20T01:30:23;5.80;99.90
7048;DHT22;3565;53.254;10.352;2022-10-20T01:33:06;5.80;99.90
7048;DHT22;3565;53.254;10.352;2022-10-20T01:35:42;5.90;99.90
7048;DHT22;3565;53.254;10.352;2022-10-20T01:38:15;5.80;99.90
7048;DHT22;3565;53.254;10.352;2022-10-20T01:40:47;5.80;99.90
7048;DHT22;3565;53.254;10.352;2022-10-20T01:43:19;5.80;99.90
7048;DHT22;3565;53.254;10.352;2022-10-20T01:45:50;5.80;99.90
7048;DHT22;3565;53.254;10.352;2022-10-20T01:48:22;5.70;99.90
7048;DHT22;3565;53.254;10.352;2022-10-20T01:50:52;5.70;99.90
7048;DHT22;3565;53.254;10.352;2022-10-20T01:53:21;5.70;99.90
7048;DHT22;3565;53.254;10.352;2022-10-20T01:55:51;5.70;99.90
7048;DHT22;3565;53.254;10.352;2022-10-20T01:58:45;5.70;99.90
7048;DHT22;3565;53.254;10.352;2022-10-20T02:01:18;5.70;99.90
7048;DHT22;3565;53.254;10.352;2022-10-20T02:03:51;5.70;99.90
7048;DHT22;3565;53.254;10.352;2022-10-20T02:06:29;5.60;99.90
7048;DHT22;3565;53.254;10.352;2022-10-20T02:08:58;5.60;99.90
7048;DHT22;3565;53.254;10.352;2022-10-20T02:11:31;5.60;99.90
7048;DHT22;3565;53.254;10.352;2022-10-20T02:14:02;5.60;99.90
7048;DHT22;3565;53.254;10.352;2022-10-20T02:16:35;5.60;99.90
7048;DHT22;3565;53.254;10.352;2022-10-20T02:19:06;5.60;99.90
7048;DHT22;3565;53.254;10.352;2022-10-20T02:21:35;5.60;99.90
7048;DHT22;3565;53.254;10.352;2022-10-20T02:29:58;5.50;99.90
7048;DHT22;3565;53.254;10.352;2022-10-20T02:32:29;5.50;99.90
7048;DHT22;3565;53.254;10.352;2022-10-20T02:35:03;5.50;99.90
7048;DHT22;3565;53.254;10.352;2022-10-20T02:51:04;5.30;99.90
7048;DHT22;3565;53.254;10.352;2022-10-20T02:53:33;5.40;99.90
7048;DHT22;3565;53.254;10.352;2022-10-20T02:56:02;5.40;99.90
7048;DHT22;3565;53.254;10.352;2022-10-20T02:58:32;5.30;99.90
7048;DHT22;3565;53.254;10.352;2022-10-20T03:01:02;5.30;99.90
7048;DHT22;3565;53.254;10.352;2022-10-20T03:03:31;5.30;99.90
7048;DHT22;3565;53.254;10.352;2022-10-20T03:06:08;5.30;99.90
7048;DHT22;3565;53.254;10.352;2022-10-20T03:08:40;5.30;99.90
7048;DHT22;3565;53.254;10.352;2022-10-20T03:11:10;5.20;99.90
7048;DHT22;3565;53.254;10.352;2022-10-20T03:13:39;5.20;99.90
7048;DHT22;3565;53.254;10.352;2022-10-20T03:16:09;5.20;99.90
7048;DHT22;3565;53.254;10.352;2022-10-20T03:18:39;5.20;99.90
7048;DHT22;3565;53.254;10.352;2022-10-20T03:21:11;5.30;99.90
7048;DHT22;3565;53.254;10.352;2022-10-20T03:23:41;5.20;99.90
7048;DHT22;3565;53.254;10.352;2022-10-20T03:26:11;5.10;99.90
7048;DHT22;3565;53.254;10.352;2022-10-20T03:28:40;5.10;99.90
7048;DHT22;3565;53.254;10.352;2022-10-20T03:31:10;5.10;99.90
7048;DHT22;3565;53.254;10.352;2022-10-20T03:33:39;5.10;99.90
7048;DHT22;3565;53.254;10.352;2022-10-20T03:36:09;5.00;99.90
7048;DHT22;3565;53.254;10.352;2022-10-20T03:38:40;5.00;99.90
7048;DHT22;3565;53.254;10.352;2022-10-20T03:41:10;5.00;99.90
7048;DHT22;3565;53.254;10.352;2022-10-20T03:43:40;5.00;99.90
7048;DHT22;3565;53.254;10.352;2022-10-20T03:46:10;5.00;99.90
7048;DHT22;3565;53.254;10.352;2022-10-20T03:48:40;5.10;99.90
7048;DHT22;3565;53.254;10.352;2022-10-20T03:51:09;5.10;99.90
7048;DHT22;3565;53.254;10.352;2022-10-20T03:53:39;5.00;99.90
7048;DHT22;3565;53.254;10.352;2022-10-20T03:56:11;5.00;99.90
7048;DHT22;3565;53.254;10.352;2022-10-20T03:58:40;5.00;76.00
7048;DHT22;3565;53.254;10.352;2022-10-20T04:01:12;5.00;73.00
7048;DHT22;3565;53.254;10.352;2022-10-20T04:03:43;5.00;62.70
7048;DHT22;3565;53.254;10.352;2022-10-20T04:06:13;5.00;58.00
7048;DHT22;3565;53.254;10.352;2022-10-20T04:08:42;4.90;52.00
7048;DHT22;3565;53.254;10.352;2022-10-20T04:11:11;5.00;53.30
7048;DHT22;3565;53.254;10.352;2022-10-20T04:13:42;4.90;42.40
7048;DHT22;3565;53.254;10.352;2022-10-20T04:16:11;4.90;59.50
7048;DHT22;3565;53.254;10.352;2022-10-20T04:18:40;5.00;58.00
7048;DHT22;3565;53.254;10.352;2022-10-20T04:21:09;5.00;78.10
7048;DHT22;3565;53.254;10.352;2022-10-20T04:23:38;5.00;66.60
7048;DHT22;3565;53.254;10.352;2022-10-20T04:26:11;5.00;62.70
7048;DHT22;3565;53.254;10.352;2022-10-20T04:28:41;5.00;56.80
7048;DHT22;3565;53.254;10.352;2022-10-20T04:31:10;5.00;68.80
7048;DHT22;3565;53.254;10.352;2022-10-20T04:33:39;5.00;99.90
7048;DHT22;3565;53.254;10.352;2022-10-20T04:36:11;5.00;99.90
7048;DHT22;3565;53.254;10.352;2022-10-20T04:38:41;5.00;99.90
7048;DHT22;3565;53.254;10.352;2022-10-20T04:41:10;5.00;99.90
7048;DHT22;3565;53.254;10.352;2022-10-20T04:43:39;5.10;99.90
7048;DHT22;3565;53.254;10.352;2022-10-20T04:46:10;5.00;99.90
7048;DHT22;3565;53.254;10.352;2022-10-20T04:48:41;5.00;99.90
7048;DHT22;3565;53.254;10.352;2022-10-20T04:51:13;5.00;99.90
7048;DHT22;3565;53.254;10.352;2022-10-20T04:53:45;5.00;99.90
7048;DHT22;3565;53.254;10.352;2022-10-20T04:56:18;4.90;99.90
7048;DHT22;3565;53.254;10.352;2022-10-20T04:58:49;4.90;99.90
7048;DHT22;3565;53.254;10.352;2022-10-20T05:01:19;4.80;99.90
7048;DHT22;3565;53.254;10.352;2022-10-20T05:03:48;4.80;99.90
7048;DHT22;3565;53.254;10.352;2022-10-20T05:06:19;4.80;99.90
7048;DHT22;3565;53.254;10.352;2022-10-20T05:08:50;4.70;99.90
7048;DHT22;3565;53.254;10.352;2022-10-20T05:11:21;4.70;99.90
7048;DHT22;3565;53.254;10.352;2022-10-20T05:13:50;4.70;99.90
7048;DHT22;3565;53.254;10.352;2022-10-20T05:16:20;4.60;99.90
7048;DHT22;3565;53.254;10.352;2022-10-20T05:18:50;4.70;99.90
7048;DHT22;3565;53.254;10.352;2022-10-20T05:21:22;4.60;99.90
7048;DHT22;3565;53.254;10.352;2022-10-20T05:23:56;4.60;99.90
7048;DHT22;3565;53.254;10.352;2022-10-20T05:26:27;4.60;99.90
7048;DHT22;3565;53.254;10.352;2022-10-20T05:28:58;4.60;99.90
7048;DHT22;3565;53.254;10.352;2022-10-20T05:31:27;4.60;99.90
7048;DHT22;3565;53.254;10.352;2022-10-20T05:33:57;4.60;99.90
7048;DHT22;3565;53.254;10.352;2022-10-20T05:36:29;4.60;99.90
7048;DHT22;3565;53.254;10.352;2022-10-20T05:38:58;4.60;99.90
7048;DHT22;3565;53.254;10.352;2022-10-20T05:41:30;4.60;99.90
7048;DHT22;3565;53.254;10.352;2022-10-20T05:44:02;4.60;99.90
7048;DHT22;3565;53.254;10.352;2022-10-20T05:46:34;4.60;99.90
7048;DHT22;3565;53.254;10.352;2022-10-20T05:49:09;4.60;99.90
7048;DHT22;3565;53.254;10.352;2022-10-20T05:51:40;4.60;99.90
7048;DHT22;3565;53.254;10.352;2022-10-20T05:54:11;4.60;99.90
7048;DHT22;3565;53.254;10.352;2022-10-20T05:56:41;4.60;99.90
7048;DHT22;3565;53.254;10.352;2022-10-20T05:59:11;4.70;99.90
7048;DHT22;3565;53.254;10.352;2022-10-20T06:01:40;4.70;99.90
7048;DHT22;3565;53.254;10.352;2022-10-20T06:04:16;4.70;99.90
7048;DHT22;3565;53.254;10.352;2022-10-20T06:06:45;4.70;99.90
7048;DHT22;3565;53.254;10.352;2022-10-20T06:09:17;4.70;99.90
7048;DHT22;3565;53.254;10.352;2022-10-20T06:11:47;4.80;99.90
7048;DHT22;3565;53.254;10.352;2022-10-20T06:14:16;5.00;99.90
7048;DHT22;3565;53.254;10.352;2022-10-20T06:16:45;5.00;99.90
7048;DHT22;3565;53.254;10.352;2022-10-20T06:19:16;4.90;99.90
7048;DHT22;3565;53.254;10.352;2022-10-20T06:21:45;5.00;99.90
7048;DHT22;3565;53.254;10.352;2022-10-20T06:26:45;5.00;99.90
7048;DHT22;3565;53.254;10.352;2022-10-20T06:29:16;5.10;99.90
7048;DHT22;3565;53.254;10.352;2022-10-20T06:31:47;5.10;99.90
7048;DHT22;3565;53.254;10.352;2022-10-20T06:34:18;5.20;99.90
7048;DHT22;3565;53.254;10.352;2022-10-20T06:36:48;5.20;99.90
7048;DHT22;3565;53.254;10.352;2022-10-20T06:39:19;5.40;99.90
7048;DHT22;3565;53.254;10.352;2022-10-20T06:41:50;5.40;99.90
7048;DHT22;3565;53.254;10.352;2022-10-20T06:44:20;5.40;99.90
7048;DHT22;3565;53.254;10.352;2022-10-20T06:46:50;5.40;99.90
7048;DHT22;3565;53.254;10.352;2022-10-20T06:49:20;5.60;99.90
7048;DHT22;3565;53.254;10.352;2022-10-20T06:51:49;5.70;99.90
7048;DHT22;3565;53.254;10.352;2022-10-20T06:54:19;5.70;99.90
7048;DHT22;3565;53.254;10.352;2022-10-20T06:56:48;5.60;99.90
7048;DHT22;3565;53.254;10.352;2022-10-20T06:59:17;5.90;99.90
7048;DHT22;3565;53.254;10.352;2022-10-20T07:01:47;5.90;99.90
7048;DHT22;3565;53.254;10.352;2022-10-20T07:04:16;5.90;99.90
7048;DHT22;3565;53.254;10.352;2022-10-20T07:06:46;5.90;99.90
7048;DHT22;3565;53.254;10.352;2022-10-20T07:09:17;6.00;99.90
7048;DHT22;3565;53.254;10.352;2022-10-20T07:11:50;6.10;99.90
7048;DHT22;3565;53.254;10.352;2022-10-20T07:17:14;6.50;99.90
7048;DHT22;3565;53.254;10.352;2022-10-20T07:19:43;6.70;99.90
7048;DHT22;3565;53.254;10.352;2022-10-20T07:22:12;6.60;99.90
7048;DHT22;3565;53.254;10.352;2022-10-20T07:27:25;7.00;99.90
7048;DHT22;3565;53.254;10.352;2022-10-20T07:29:54;7.10;99.90
7048;DHT22;3565;53.254;10.352;2022-10-20T07:32:24;7.30;99.90
7048;DHT22;3565;53.254;10.352;2022-10-20T07:34:54;7.30;99.90
7048;DHT22;3565;53.254;10.352;2022-10-20T07:37:23;7.60;99.90
7048;DHT22;3565;53.254;10.352;2022-10-20T07:39:53;7.40;99.90
7048;DHT22;3565;53.254;10.352;2022-10-20T07:42:22;7.60;99.90
7048;DHT22;3565;53.254;10.352;2022-10-20T07:44:51;8.00;99.90
7048;DHT22;3565;53.254;10.352;2022-10-20T07:47:21;8.10;99.90
7048;DHT22;3565;53.254;10.352;2022-10-20T07:49:50;7.80;99.90
7048;DHT22;3565;53.254;10.352;2022-10-20T07:52:19;7.80;99.90
7048;DHT22;3565;53.254;10.352;2022-10-20T07:54:49;7.70;99.90
7048;DHT22;3565;53.254;10.352;2022-10-20T07:57:18;7.80;99.90
7048;DHT22;3565;53.254;10.352;2022-10-20T07:59:47;8.30;99.90
7048;DHT22;3565;53.254;10.352;2022-10-20T08:02:16;8.50;99.90
7048;DHT22;3565;53.254;10.352;2022-10-20T08:04:48;8.70;99.90
7048;DHT22;3565;53.254;10.352;2022-10-20T08:07:17;9.10;99.90
7048;DHT22;3565;53.254;10.352;2022-10-20T08:09:46;9.10;99.90
7048;DHT22;3565;53.254;10.352;2022-10-20T08:12:15;9.40;99.90
7048;DHT22;3565;53.254;10.352;2022-10-20T08:14:44;9.20;99.90
7048;DHT22;3565;53.254;10.352;2022-10-20T08:17:13;9.20;99.90
7048;DHT22;3565;53.254;10.352;2022-10-20T08:19:42;9.30;99.90
7048;DHT22;3565;53.254;10.352;2022-10-20T08:22:11;9.40;99.90
7048;DHT22;3565;53.254;10.352;2022-10-20T08:24:41;9.70;99.90
7048;DHT22;3565;53.254;10.352;2022-10-20T08:27:13;9.70;99.90
7048;DHT22;3565;53.254;10.352;2022-10-20T08:29:42;9.90;99.90
7048;DHT22;3565;53.254;10.352;2022-10-20T08:32:11;9.60;99.90
7048;DHT22;3565;53.254;10.352;2022-10-20T08:34:41;9.60;99.90
7048;DHT22;3565;53.254;10.352;2022-10-20T08:37:10;9.80;99.90
7048;DHT22;3565;53.254;10.352;2022-10-20T08:42:28;10.40;99.90
7048;DHT22;3565;53.254;10.352;2022-10-20T08:44:58;10.70;99.90
7048;DHT22;3565;53.254;10.352;2022-10-20T08:47:30;10.40;99.90
7048;DHT22;3565;53.254;10.352;2022-10-20T08:49:59;10.50;99.90
7048;DHT22;3565;53.254;10.352;2022-10-20T08:52:28;10.80;99.90
7048;DHT22;3565;53.254;10.352;2022-10-20T08:54:57;10.60;99.90
7048;DHT22;3565;53.254;10.352;2022-10-20T08:57:29;10.60;99.90
7048;DHT22;3565;53.254;10.352;2022-10-20T09:00:00;11.10;99.90
7048;DHT22;3565;53.254;10.352;2022-10-20T09:02:31;10.90;99.90
7048;DHT22;3565;53.254;10.352;2022-10-20T09:05:01;10.60;99.90
7048;DHT22;3565;53.254;10.352;2022-10-20T09:07:33;10.90;99.90
7048;DHT22;3565;53.254;10.352;2022-10-20T09:10:12;10.70;99.90
7048;DHT22;3565;53.254;10.352;2022-10-20T09:12:38;11.00;99.90
7048;DHT22;3565;53.254;10.352;2022-10-20T09:15:10;10.90;99.90
7048;DHT22;3565;53.254;10.352;2022-10-20T09:17:40;10.80;99.90
7048;DHT22;3565;53.254;10.352;2022-10-20T09:20:15;11.00;99.90
7048;DHT22;3565;53.254;10.352;2022-10-20T09:22:44;10.80;99.90
7048;DHT22;3565;53.254;10.352;2022-10-20T09:25:15;10.60;99.90
7048;DHT22;3565;53.254;10.352;2022-10-20T09:27:45;11.00;99.90
7048;DHT22;3565;53.254;10.352;2022-10-20T09:30:20;11.10;99.90
7048;DHT22;3565;53.254;10.352;2022-10-20T09:32:50;11.40;99.90
7048;DHT22;3565;53.254;10.352;2022-10-20T09:35:22;11.60;99.90
7048;DHT22;3565;53.254;10.352;2022-10-20T09:37:55;11.50;99.90
7048;DHT22;3565;53.254;10.352;2022-10-20T09:40:26;11.60;99.90
7048;DHT22;3565;53.254;10.352;2022-10-20T09:42:58;11.50;99.90
7048;DHT22;3565;53.254;10.352;2022-10-20T09:45:29;11.70;99.90
7048;DHT22;3565;53.254;10.352;2022-10-20T09:48:02;12.10;99.90
7048;DHT22;3565;53.254;10.352;2022-10-20T09:50:34;12.00;99.90
7048;DHT22;3565;53.254;10.352;2022-10-20T09:53:06;12.20;99.90
7048;DHT22;3565;53.254;10.352;2022-10-20T09:55:38;12.40;99.90
7048;DHT22;3565;53.254;10.352;2022-10-20T09:58:14;12.00;99.90
7048;DHT22;3565;53.254;10.352;2022-10-20T10:00:45;11.90;99.90
7048;DHT22;3565;53.254;10.352;2022-10-20T10:03:18;12.00;99.90
7048;DHT22;3565;53.254;10.352;2022-10-20T10:05:52;11.50;99.90
7048;DHT22;3565;53.254;10.352;2022-10-20T10:08:23;11.50;99.90
7048;DHT22;3565;53.254;10.352;2022-10-20T10:11:00;11.80;99.90
7048;DHT22;3565;53.254;10.352;2022-10-20T10:13:36;12.50;99.90
7048;DHT22;3565;53.254;10.352;2022-10-20T10:16:05;12.50;99.90
7048;DHT22;3565;53.254;10.352;2022-10-20T10:18:36;12.20;99.90
7048;DHT22;3565;53.254;10.352;2022-10-20T10:21:08;12.80;99.90
7048;DHT22;3565;53.254;10.352;2022-10-20T10:23:48;13.30;99.90
7048;DHT22;3565;53.254;10.352;2022-10-20T10:26:43;14.10;99.90
7048;DHT22;3565;53.254;10.352;2022-10-20T10:29:23;12.90;99.90
7048;DHT22;3565;53.254;10.352;2022-10-20T10:31:56;12.50;99.90
7048;DHT22;3565;53.254;10.352;2022-10-20T10:37:36;12.90;99.90
7048;DHT22;3565;53.254;10.352;2022-10-20T10:40:13;12.70;99.90
7048;DHT22;3565;53.254;10.352;2022-10-20T10:43:10;12.20;99.90
7048;DHT22;3565;53.254;10.352;2022-10-20T10:45:44;12.50;99.90
7048;DHT22;3565;53.254;10.352;2022-10-20T10:48:40;13.00;99.90
7048;DHT22;3565;53.254;10.352;2022-10-20T10:51:13;13.00;99.90
7048;DHT22;3565;53.254;10.352;2022-10-20T10:53:50;13.80;99.90
7048;DHT22;3565;53.254;10.352;2022-10-20T10:56:23;14.40;99.90
7048;DHT22;3565;53.254;10.352;2022-10-20T10:58:55;13.50;99.90
7048;DHT22;3565;53.254;10.352;2022-10-20T11:05:08;13.30;99.90
7048;DHT22;3565;53.254;10.352;2022-10-20T11:07:39;13.80;99.90
7048;DHT22;3565;53.254;10.352;2022-10-20T11:10:13;14.40;99.90
7048;DHT22;3565;53.254;10.352;2022-10-20T11:12:55;14.40;99.90
7048;DHT22;3565;53.254;10.352;2022-10-20T11:15:40;14.00;99.90
7048;DHT22;3565;53.254;10.352;2022-10-20T11:18:12;13.50;99.90
7048;DHT22;3565;53.254;10.352;2022-10-20T11:20:46;14.30;99.90
7048;DHT22;3565;53.254;10.352;2022-10-20T11:23:38;13.90;99.90
7048;DHT22;3565;53.254;10.352;2022-10-20T11:26:12;13.70;99.90
7048;DHT22;3565;53.254;10.352;2022-10-20T11:28:44;13.70;99.90
7048;DHT22;3565;53.254;10.352;2022-10-20T11:31:19;14.10;99.90
7048;DHT22;3565;53.254;10.352;2022-10-20T11:33:51;14.40;99.90
7048;DHT22;3565;53.254;10.352;2022-10-20T11:36:23;14.20;99.90
7048;DHT22;3565;53.254;10.352;2022-10-20T11:38:54;14.20;99.90
7048;DHT22;3565;53.254;10.352;2022-10-20T11:41:27;13.80;99.90
7048;DHT22;3565;53.254;10.352;2022-10-20T11:44:00;13.90;99.90
7048;DHT22;3565;53.254;10.352;2022-10-20T11:46:35;14.90;99.90
7048;DHT22;3565;53.254;10.352;2022-10-20T11:49:05;14.70;99.90
7048;DHT22;3565;53.254;10.352;2022-10-20T11:52:09;14.30;99.90
7048;DHT22;3565;53.254;10.352;2022-10-20T11:54:58;14.20;99.90
7048;DHT22;3565;53.254;10.352;2022-10-20T11:57:37;14.50;99.90
7048;DHT22;3565;53.254;10.352;2022-10-20T12:00:21;14.10;99.90
7048;DHT22;3565;53.254;10.352;2022-10-20T12:03:40;15.00;99.90
7048;DHT22;3565;53.254;10.352;2022-10-20T12:09:48;14.80;99.90
7048;DHT22;3565;53.254;10.352;2022-10-20T12:12:24;15.90;99.90
7048;DHT22;3565;53.254;10.352;2022-10-20T12:17:42;15.30;99.90
7048;DHT22;3565;53.254;10.352;2022-10-20T12:20:49;16.10;99.90
7048;DHT22;3565;53.254;10.352;2022-10-20T12:23:55;16.20;99.90
7048;DHT22;3565;53.254;10.352;2022-10-20T12:26:38;15.30;99.90
7048;DHT22;3565;53.254;10.352;2022-10-20T12:35:58;14.70;99.90
7048;DHT22;3565;53.254;10.352;2022-10-20T12:38:29;15.70;99.90
7048;DHT22;3565;53.254;10.352;2022-10-20T12:41:01;15.70;99.90
7048;DHT22;3565;53.254;10.352;2022-10-20T12:43:34;15.00;99.90
7048;DHT22;3565;53.254;10.352;2022-10-20T12:46:08;15.00;99.90
7048;DHT22;3565;53.254;10.352;2022-10-20T12:48:42;15.00;99.90
7048;DHT22;3565;53.254;10.352;2022-10-20T12:51:20;15.60;99.90
7048;DHT22;3565;53.254;10.352;2022-10-20T12:53:53;14.80;99.90
7048;DHT22;3565;53.254;10.352;2022-10-20T12:56:26;14.50;99.90
7048;DHT22;3565;53.254;10.352;2022-10-20T13:02:30;14.20;99.90
7048;DHT22;3565;53.254;10.352;2022-10-20T13:05:01;14.50;99.90
7048;DHT22;3565;53.254;10.352;2022-10-20T13:10:36;15.20;99.90
7048;DHT22;3565;53.254;10.352;2022-10-20T13:13:38;15.70;99.90
7048;DHT22;3565;53.254;10.352;2022-10-20T13:16:14;15.60;99.90
7048;DHT22;3565;53.254;10.352;2022-10-20T13:18:47;14.90;99.90
7048;DHT22;3565;53.254;10.352;2022-10-20T13:21:31;15.00;99.90
7048;DHT22;3565;53.254;10.352;2022-10-20T13:24:13;15.50;99.90
7048;DHT22;3565;53.254;10.352;2022-10-20T13:26:52;14.60;99.90
7048;DHT22;3565;53.254;10.352;2022-10-20T13:29:26;14.90;99.90
7048;DHT22;3565;53.254;10.352;2022-10-20T13:32:04;14.90;99.90
7048;DHT22;3565;53.254;10.352;2022-10-20T13:34:37;15.40;99.90
7048;DHT22;3565;53.254;10.352;2022-10-20T13:37:28;15.20;99.90
7048;DHT22;3565;53.254;10.352;2022-10-20T13:40:02;15.10;99.90
7048;DHT22;3565;53.254;10.352;2022-10-20T13:42:39;13.70;25.60
7048;DHT22;3565;53.254;10.352;2022-10-20T13:45:16;14.10;99.90
7048;DHT22;3565;53.254;10.352;2022-10-20T13:47:49;14.00;99.90
7048;DHT22;3565;53.254;10.352;2022-10-20T13:50:21;13.90;99.90
7048;DHT22;3565;53.254;10.352;2022-10-20T13:52:52;14.00;99.90
7048;DHT22;3565;53.254;10.352;2022-10-20T13:55:24;14.10;99.90
7048;DHT22;3565;53.254;10.352;2022-10-20T13:57:55;14.10;99.90
7048;DHT22;3565;53.254;10.352;2022-10-20T14:00:27;14.00;99.90
7048;DHT22;3565;53.254;10.352;2022-10-20T14:03:01;14.00;99.90
7048;DHT22;3565;53.254;10.352;2022-10-20T14:05:35;13.90;99.90
7048;DHT22;3565;53.254;10.352;2022-10-20T14:08:09;13.60;99.90
7048;DHT22;3565;53.254;10.352;2022-10-20T14:10:42;13.60;99.90
7048;DHT22;3565;53.254;10.352;2022-10-20T14:13:15;13.40;99.90
7048;DHT22;3565;53.254;10.352;2022-10-20T14:15:47;13.30;99.90
7048;DHT22;3565;53.254;10.352;2022-10-20T14:18:25;12.90;99.90
7048;DHT22;3565;53.254;10.352;2022-10-20T14:20:58;13.10;99.90
7048;DHT22;3565;53.254;10.352;2022-10-20T14:23:32;13.20;99.90
7048;DHT22;3565;53.254;10.352;2022-10-20T14:26:02;13.30;99.90
7048;DHT22;3565;53.254;10.352;2022-10-20T14:28:33;13.40;99.90
7048;DHT22;3565;53.254;10.352;2022-10-20T14:31:03;13.10;99.90
7048;DHT22;3565;53.254;10.352;2022-10-20T14:33:34;13.20;99.90
7048;DHT22;3565;53.254;10.352;2022-10-20T14:36:04;13.10;99.90
7048;DHT22;3565;53.254;10.352;2022-10-20T14:38:35;13.00;99.90
7048;DHT22;3565;53.254;10.352;2022-10-20T14:41:06;12.90;99.90
7048;DHT22;3565;53.254;10.352;2022-10-20T14:43:37;13.00;99.90
7048;DHT22;3565;53.254;10.352;2022-10-20T14:46:10;12.60;99.90
7048;DHT22;3565;53.254;10.352;2022-10-20T14:48:42;12.60;99.90
7048;DHT22;3565;53.254;10.352;2022-10-20T14:51:33;12.60;99.90
7048;DHT22;3565;53.254;10.352;2022-10-20T14:54:24;12.60;99.90
7048;DHT22;3565;53.254;10.352;2022-10-20T14:56:55;12.60;99.90
7048;DHT22;3565;53.254;10.352;2022-10-20T14:59:25;12.50;99.90
7048;DHT22;3565;53.254;10.352;2022-10-20T15:02:03;12.30;99.90
7048;DHT22;3565;53.254;10.352;2022-10-20T15:04:37;12.30;51.20
7048;DHT22;3565;53.254;10.352;2022-10-20T15:07:11;12.20;1.00
7048;DHT22;3565;53.254;10.352;2022-10-20T15:09:42;12.40;1.00
7048;DHT22;3565;53.254;10.352;2022-10-20T15:12:16;12.10;99.90
7048;DHT22;3565;53.254;10.352;2022-10-20T15:14:47;12.10;99.90
7048;DHT22;3565;53.254;10.352;2022-10-20T15:17:35;12.00;99.90
7048;DHT22;3565;53.254;10.352;2022-10-20T15:20:32;11.90;99.90
7048;DHT22;3565;53.254;10.352;2022-10-20T15:23:02;11.70;99.90
7048;DHT22;3565;53.254;10.352;2022-10-20T15:25:35;11.90;99.90
7048;DHT22;3565;53.254;10.352;2022-10-20T15:28:05;11.80;99.90
7048;DHT22;3565;53.254;10.352;2022-10-20T15:30:34;11.80;99.90
7048;DHT22;3565;53.254;10.352;2022-10-20T15:33:03;11.80;99.90
7048;DHT22;3565;53.254;10.352;2022-10-20T15:35:32;12.10;99.90
7048;DHT22;3565;53.254;10.352;2022-10-20T15:38:00;11.90;99.90
7048;DHT22;3565;53.254;10.352;2022-10-20T15:40:29;11.80;99.90
7048;DHT22;3565;53.254;10.352;2022-10-20T15:42:58;11.70;99.90
7048;DHT22;3565;53.254;10.352;2022-10-20T15:45:29;11.40;99.90
7048;DHT22;3565;53.254;10.352;2022-10-20T15:47:58;11.40;99.90
7048;DHT22;3565;53.254;10.352;2022-10-20T15:50:26;11.50;99.90
7048;DHT22;3565;53.254;10.352;2022-10-20T15:52:55;11.60;99.90
7048;DHT22;3565;53.254;10.352;2022-10-20T15:55:26;11.50;99.90
7048;DHT22;3565;53.254;10.352;2022-10-20T15:57:56;11.40;99.90
7048;DHT22;3565;53.254;10.352;2022-10-20T16:00:27;11.50;99.90
7048;DHT22;3565;53.254;10.352;2022-10-20T16:02:56;11.40;99.90
7048;DHT22;3565;53.254;10.352;2022-10-20T16:05:25;11.40;99.90
7048;DHT22;3565;53.254;10.352;2022-10-20T16:07:55;11.30;99.90
7048;DHT22;3565;53.254;10.352;2022-10-20T16:10:25;11.40;99.90
7048;DHT22;3565;53.254;10.352;2022-10-20T16:12:56;11.40;99.90
7048;DHT22;3565;53.254;10.352;2022-10-20T16:15:25;11.30;99.90
7048;DHT22;3565;53.254;10.352;2022-10-20T16:17:54;11.30;99.90
7048;DHT22;3565;53.254;10.352;2022-10-20T16:20:23;11.30;99.90
7048;DHT22;3565;53.254;10.352;2022-10-20T16:22:52;11.30;99.90
7048;DHT22;3565;53.254;10.352;2022-10-20T16:28:02;11.30;99.90
7048;DHT22;3565;53.254;10.352;2022-10-20T16:30:32;11.30;99.90
7048;DHT22;3565;53.254;10.352;2022-10-20T16:33:01;11.30;99.90
7048;DHT22;3565;53.254;10.352;2022-10-20T16:35:30;11.40;99.90
7048;DHT22;3565;53.254;10.352;2022-10-20T16:37:59;11.30;99.90
7048;DHT22;3565;53.254;10.352;2022-10-20T16:40:28;11.30;99.90
7048;DHT22;3565;53.254;10.352;2022-10-20T16:42:59;11.30;99.90
7048;DHT22;3565;53.254;10.352;2022-10-20T16:45:28;11.40;99.90
7048;DHT22;3565;53.254;10.352;2022-10-20T16:47:57;11.30;99.90
7048;DHT22;3565;53.254;10.352;2022-10-20T16:50:27;11.40;99.90
7048;DHT22;3565;53.254;10.352;2022-10-20T16:52:56;11.20;99.90
7048;DHT22;3565;53.254;10.352;2022-10-20T16:55:25;11.30;99.90
7048;DHT22;3565;53.254;10.352;2022-10-20T16:57:54;11.30;99.90
7048;DHT22;3565;53.254;10.352;2022-10-20T17:00:24;11.20;99.90
7048;DHT22;3565;53.254;10.352;2022-10-20T17:02:54;11.30;99.90
7048;DHT22;3565;53.254;10.352;2022-10-20T17:05:24;11.30;99.90
7048;DHT22;3565;53.254;10.352;2022-10-20T17:07:53;11.20;99.90
7048;DHT22;3565;53.254;10.352;2022-10-20T17:10:22;11.30;99.90
7048;DHT22;3565;53.254;10.352;2022-10-20T17:12:51;11.30;99.90
7048;DHT22;3565;53.254;10.352;2022-10-20T17:15:20;11.20;99.90
7048;DHT22;3565;53.254;10.352;2022-10-20T17:17:50;11.20;99.90
7048;DHT22;3565;53.254;10.352;2022-10-20T17:20:21;11.20;99.90
7048;DHT22;3565;53.254;10.352;2022-10-20T17:22:53;11.20;99.90
7048;DHT22;3565;53.254;10.352;2022-10-20T17:25:22;11.30;99.90
7048;DHT22;3565;53.254;10.352;2022-10-20T17:30:30;11.90;99.90
7048;DHT22;3565;53.254;10.352;2022-10-20T17:32:59;11.30;99.90
7048;DHT22;3565;53.254;10.352;2022-10-20T17:35:29;11.30;99.90
7048;DHT22;3565;53.254;10.352;2022-10-20T17:37:57;11.30;99.90
7048;DHT22;3565;53.254;10.352;2022-10-20T17:40:26;11.30;99.90